createdAt,value
2018-10-09T00:01:41.329Z,92.30
2018-10-09T00:04:09.703Z,92.30
2018-10-09T00:06:38.104Z,92.30
2018-10-09T00:09:08.020Z,92.30
2018-10-09T00:11:36.540Z,92.40
2018-10-09T00:14:05.144Z,92.40
2018-10-09T00:16:33.496Z,92.40
2018-10-09T00:19:01.856Z,92.50
2018-10-09T00:21:30.280Z,92.50
2018-10-09T00:23:58.616Z,92.50
2018-10-09T00:26:26.980Z,92.60
2018-10-09T00:28:55.376Z,92.60
2018-10-09T00:31:23.776Z,92.60
2018-10-09T00:33:52.948Z,92.70
2018-10-09T00:36:21.261Z,92.70
2018-10-09T00:38:49.616Z,92.70
2018-10-09T00:41:18.033Z,92.80
2018-10-09T00:43:46.405Z,93.10
2018-10-09T00:46:14.758Z,92.80
2018-10-09T00:48:43.208Z,92.80
2018-10-09T00:51:11.593Z,92.80
2018-10-09T00:53:40.011Z,92.90
2018-10-09T00:56:08.896Z,92.90
2018-10-09T00:58:37.265Z,93.00
2018-10-09T01:01:05.667Z,93.10
2018-10-09T01:03:34.048Z,93.10
2018-10-09T01:06:02.508Z,93.10
2018-10-09T01:08:30.858Z,93.10
2018-10-09T01:10:59.164Z,93.10
2018-10-09T01:13:27.528Z,93.10
2018-10-09T01:15:56.057Z,93.10
2018-10-09T01:18:24.538Z,93.30
2018-10-09T01:20:52.880Z,93.30
2018-10-09T01:23:21.236Z,93.40
2018-10-09T01:25:49.585Z,93.40
2018-10-09T01:28:17.905Z,93.40
2018-10-09T01:30:46.264Z,93.50
2018-10-09T01:33:14.588Z,93.50
2018-10-09T01:35:42.973Z,93.40
2018-10-09T01:38:11.332Z,93.50
2018-10-09T01:40:39.686Z,93.40
2018-10-09T01:43:08.039Z,93.40
2018-10-09T01:45:36.353Z,93.50
2018-10-09T01:48:04.689Z,93.40
2018-10-09T01:50:33.120Z,93.40
2018-10-09T01:53:01.467Z,93.30
2018-10-09T01:55:29.828Z,93.30
2018-10-09T01:57:58.168Z,93.30
2018-10-09T02:00:26.493Z,93.30
2018-10-09T02:02:54.824Z,93.30
2018-10-09T02:05:23.180Z,93.30
2018-10-09T02:07:51.522Z,93.30
2018-10-09T02:10:19.850Z,93.30
2018-10-09T02:12:48.216Z,93.40
2018-10-09T02:15:16.658Z,93.40
2018-10-09T02:17:45.035Z,93.40
2018-10-09T02:20:13.394Z,93.40
2018-10-09T02:22:41.792Z,93.40
2018-10-09T02:25:10.120Z,93.40
2018-10-09T02:27:38.446Z,93.40
2018-10-09T02:30:07.613Z,93.40
2018-10-09T02:32:35.952Z,93.50
2018-10-09T02:35:04.368Z,93.40
2018-10-09T02:37:32.785Z,93.50
2018-10-09T02:40:01.168Z,93.50
2018-10-09T02:42:29.586Z,93.60
2018-10-09T02:44:57.924Z,93.60
2018-10-09T02:47:26.257Z,93.60
2018-10-09T02:49:54.580Z,93.60
2018-10-09T02:52:22.908Z,93.60
2018-10-09T02:54:51.408Z,93.70
2018-10-09T02:57:19.728Z,93.70
2018-10-09T02:59:48.169Z,93.60
2018-10-09T03:02:16.527Z,93.70
2018-10-09T03:04:45.006Z,93.70
2018-10-09T03:07:13.345Z,93.60
2018-10-09T03:09:41.737Z,93.70
2018-10-09T03:12:10.105Z,93.70
2018-10-09T03:14:38.472Z,93.70
2018-10-09T03:17:06.825Z,93.70
2018-10-09T03:19:35.169Z,93.80
2018-10-09T03:22:03.514Z,93.70
2018-10-09T03:24:31.899Z,93.70
2018-10-09T03:27:00.277Z,93.80
2018-10-09T03:29:28.701Z,93.80
2018-10-09T03:31:57.248Z,93.90
2018-10-09T03:34:25.544Z,93.80
2018-10-09T03:36:53.954Z,93.90
2018-10-09T03:39:22.265Z,93.90
2018-10-09T03:41:50.620Z,93.90
2018-10-09T03:44:18.931Z,93.90
2018-10-09T03:46:47.375Z,94.00
2018-10-09T03:49:15.758Z,94.00
2018-10-09T03:51:44.118Z,94.00
2018-10-09T03:54:12.559Z,94.10
2018-10-09T03:56:40.876Z,94.30
2018-10-09T03:59:09.257Z,94.00
2018-10-09T04:01:37.627Z,94.10
2018-10-09T04:04:06.044Z,94.10
2018-10-09T04:06:34.396Z,94.10
2018-10-09T04:09:02.796Z,94.10
2018-10-09T04:11:31.143Z,94.10
2018-10-09T04:13:59.493Z,94.20
2018-10-09T04:16:27.878Z,94.20
2018-10-09T04:18:56.219Z,94.20
2018-10-09T04:21:24.561Z,94.20
2018-10-09T04:23:52.900Z,94.20
2018-10-09T04:26:21.297Z,94.60
2018-10-09T04:28:49.660Z,94.30
2018-10-09T04:31:17.976Z,94.30
2018-10-09T04:33:46.308Z,94.20
2018-10-09T04:36:14.668Z,94.30
2018-10-09T04:38:43.016Z,94.30
2018-10-09T04:41:11.422Z,94.30
2018-10-09T04:43:39.865Z,94.30
2018-10-09T04:46:08.249Z,94.30
2018-10-09T04:48:36.648Z,94.30
2018-10-09T04:51:04.984Z,94.30
2018-10-09T04:53:33.380Z,94.40
2018-10-09T04:56:01.704Z,94.40
2018-10-09T04:58:30.043Z,94.40
2018-10-09T05:00:58.396Z,94.40
2018-10-09T05:03:26.708Z,94.40
2018-10-09T05:05:55.049Z,94.40
2018-10-09T05:08:23.536Z,94.60
2018-10-09T05:10:52.032Z,94.50
2018-10-09T05:13:20.376Z,94.50
2018-10-09T05:15:48.676Z,94.50
2018-10-09T05:18:17.136Z,94.50
2018-10-09T05:20:45.560Z,94.50
2018-10-09T05:23:13.933Z,94.60
2018-10-09T05:25:42.365Z,94.60
2018-10-09T05:28:10.728Z,94.60
2018-10-09T05:30:39.229Z,94.70
2018-10-09T05:33:07.800Z,94.70
2018-10-09T05:35:36.169Z,94.70
2018-10-09T05:38:04.552Z,94.70
2018-10-09T05:40:33.003Z,94.70
2018-10-09T05:43:01.450Z,94.70
2018-10-09T05:45:29.792Z,94.60
2018-10-09T05:47:58.237Z,94.80
2018-10-09T05:50:26.593Z,94.70
2018-10-09T05:52:54.923Z,94.70
2018-10-09T05:55:23.233Z,94.70
2018-10-09T05:57:51.743Z,94.70
2018-10-09T06:00:20.120Z,94.80
2018-10-09T06:02:48.503Z,94.70
2018-10-09T06:05:16.832Z,94.80
2018-10-09T06:07:45.326Z,94.80
2018-10-09T06:10:13.840Z,94.80
2018-10-09T06:12:42.165Z,94.80
2018-10-09T06:15:10.529Z,94.80
2018-10-09T06:17:38.836Z,94.80
2018-10-09T06:20:07.274Z,94.90
2018-10-09T06:23:38.329Z,94.90
2018-10-09T06:26:06.708Z,94.80
2018-10-09T06:28:35.115Z,94.80
2018-10-09T06:31:03.474Z,94.80
2018-10-09T06:33:31.828Z,94.80
2018-10-09T06:36:00.216Z,94.90
2018-10-09T06:38:28.597Z,94.90
2018-10-09T06:40:56.933Z,94.90
2018-10-09T06:43:25.242Z,94.90
2018-10-09T06:45:53.589Z,94.90
2018-10-09T06:48:22.004Z,95.00
2018-10-09T06:50:50.318Z,95.10
2018-10-09T06:53:18.727Z,95.10
2018-10-09T06:55:47.304Z,95.10
2018-10-09T06:58:16.070Z,95.20
2018-10-09T07:00:44.414Z,95.20
2018-10-09T07:03:12.751Z,95.20
2018-10-09T07:05:41.146Z,95.30
2018-10-09T07:08:09.547Z,95.40
2018-10-09T07:10:38.643Z,95.50
2018-10-09T07:13:07.101Z,95.50
2018-10-09T07:15:35.469Z,95.60
2018-10-09T07:18:03.871Z,95.60
2018-10-09T07:20:32.270Z,95.70
2018-10-09T07:23:00.694Z,95.70
2018-10-09T07:25:29.064Z,95.60
2018-10-09T07:27:57.577Z,95.60
2018-10-09T07:30:25.833Z,95.90
2018-10-09T07:32:54.186Z,95.60
2018-10-09T07:35:22.544Z,95.60
2018-10-09T07:37:51.122Z,95.70
2018-10-09T07:40:19.426Z,95.80
2018-10-09T07:42:47.761Z,95.90
2018-10-09T07:45:16.421Z,95.90
2018-10-09T07:47:44.836Z,96.20
2018-10-09T07:50:13.270Z,95.90
2018-10-09T07:52:41.695Z,95.80
2018-10-09T07:55:10.045Z,95.60
2018-10-09T07:57:38.449Z,95.60
2018-10-09T08:00:06.960Z,95.10
2018-10-09T08:02:35.424Z,94.80
2018-10-09T08:05:03.865Z,94.50
2018-10-09T08:07:32.345Z,94.00
2018-10-09T08:10:00.741Z,93.70
2018-10-09T08:12:29.093Z,93.30
2018-10-09T08:14:57.420Z,93.10
2018-10-09T08:17:25.777Z,92.60
2018-10-09T08:19:54.131Z,92.30
2018-10-09T08:22:22.500Z,92.20
2018-10-09T08:24:50.785Z,92.20
2018-10-09T08:27:19.205Z,91.80
2018-10-09T08:29:47.593Z,91.50
2018-10-09T08:32:16.074Z,91.40
2018-10-09T08:34:44.462Z,91.20
2018-10-09T08:37:12.978Z,90.80
2018-10-09T08:39:41.305Z,90.60
2018-10-09T08:42:09.768Z,90.30
2018-10-09T08:44:38.073Z,90.10
2018-10-09T08:47:06.623Z,89.60
2018-10-09T08:49:34.985Z,89.70
2018-10-09T08:52:03.444Z,89.30
2018-10-09T08:54:31.785Z,89.20
2018-10-09T08:57:00.137Z,88.90
2018-10-09T08:59:28.461Z,89.30
2018-10-09T09:01:56.813Z,87.90
2018-10-09T09:04:25.180Z,87.70
2018-10-09T09:06:53.689Z,87.70
2018-10-09T09:09:22.028Z,87.60
2018-10-09T09:11:50.390Z,87.70
2018-10-09T09:14:18.713Z,87.10
2018-10-09T09:16:47.089Z,86.80
2018-10-09T09:19:15.445Z,85.60
2018-10-09T09:21:43.815Z,85.60
2018-10-09T09:24:12.249Z,85.80
2018-10-09T09:26:40.657Z,85.20
2018-10-09T09:29:08.950Z,85.10
2018-10-09T09:31:37.309Z,84.70
2018-10-09T09:34:05.817Z,84.40
2018-10-09T09:36:34.240Z,84.10
2018-10-09T09:39:02.767Z,83.20
2018-10-09T09:41:31.365Z,82.50
2018-10-09T09:43:59.698Z,81.90
2018-10-09T09:46:28.002Z,81.80
2018-10-09T09:48:56.489Z,81.50
2018-10-09T09:51:25.096Z,81.00
2018-10-09T09:53:53.543Z,80.60
2018-10-09T09:56:21.865Z,80.30
2018-10-09T09:58:50.453Z,79.90
2018-10-09T10:01:18.649Z,79.40
2018-10-09T10:03:47.068Z,79.00
2018-10-09T10:06:15.379Z,78.40
2018-10-09T10:08:43.728Z,78.10
2018-10-09T10:11:12.091Z,78.00
2018-10-09T10:13:40.441Z,77.10
2018-10-09T10:16:08.910Z,75.90
2018-10-09T10:18:37.272Z,75.50
2018-10-09T10:21:06.090Z,75.20
2018-10-09T10:23:34.513Z,74.70
2018-10-09T10:26:02.881Z,73.70
2018-10-09T10:28:31.212Z,73.40
2018-10-09T10:30:59.566Z,72.70
2018-10-09T10:33:28.152Z,71.70
2018-10-09T10:35:56.500Z,70.90
2018-10-09T10:38:24.892Z,69.50
2018-10-09T10:40:53.189Z,68.40
2018-10-09T10:43:21.537Z,67.30
2018-10-09T10:45:49.874Z,66.50
2018-10-09T10:48:18.291Z,66.00
2018-10-09T10:50:46.669Z,64.90
2018-10-09T10:53:15.021Z,63.90
2018-10-09T10:55:44.619Z,63.60
2018-10-09T10:58:13.103Z,62.60
2018-10-09T11:00:41.508Z,61.70
2018-10-09T11:03:09.869Z,60.50
2018-10-09T11:05:38.251Z,59.60
2018-10-09T11:08:06.775Z,59.20
2018-10-09T11:10:35.093Z,58.20
2018-10-09T11:13:03.467Z,56.60
2018-10-09T11:15:31.969Z,56.30
2018-10-09T11:18:00.329Z,55.50
2018-10-09T11:20:28.653Z,55.30
2018-10-09T11:22:56.994Z,54.80
2018-10-09T11:25:25.567Z,54.40
2018-10-09T11:27:53.969Z,54.20
2018-10-09T11:30:22.317Z,54.10
2018-10-09T11:32:50.649Z,52.80
2018-10-09T11:35:19.060Z,52.20
2018-10-09T11:37:47.409Z,50.90
2018-10-09T11:40:15.749Z,50.40
2018-10-09T11:42:44.377Z,50.30
2018-10-09T11:45:12.765Z,48.90
2018-10-09T11:47:41.080Z,48.40
2018-10-09T11:50:09.500Z,48.10
2018-10-09T11:52:37.835Z,47.40
2018-10-09T11:55:06.231Z,47.20
2018-10-09T11:57:35.112Z,46.90
2018-10-09T12:00:03.665Z,46.60
2018-10-09T12:02:32.121Z,47.00
2018-10-09T12:05:00.508Z,46.00
2018-10-09T12:07:28.837Z,44.80
2018-10-09T12:09:57.157Z,44.40
2018-10-09T12:12:25.534Z,43.60
2018-10-09T12:14:54.079Z,43.10
2018-10-09T12:17:22.853Z,42.70
2018-10-09T12:19:51.287Z,41.90
2018-10-09T12:22:19.971Z,42.10
2018-10-09T12:24:48.405Z,41.60
2018-10-09T12:27:16.762Z,41.00
2018-10-09T12:29:45.113Z,40.10
2018-10-09T12:32:13.449Z,39.90
2018-10-09T12:34:41.981Z,39.00
2018-10-09T12:37:10.413Z,38.20
2018-10-09T12:39:38.789Z,37.80
2018-10-09T12:42:07.263Z,36.60
2018-10-09T12:44:35.815Z,36.60
2018-10-09T12:47:04.135Z,36.20
2018-10-09T12:49:32.529Z,36.20
2018-10-09T12:52:00.828Z,35.40
2018-10-09T12:54:29.178Z,34.90
2018-10-09T12:56:57.587Z,34.30
2018-10-09T12:59:26.025Z,33.60
2018-10-09T13:01:54.490Z,33.50
2018-10-09T13:04:22.870Z,33.70
2018-10-09T13:06:51.293Z,33.30
2018-10-09T13:09:19.648Z,33.30
2018-10-09T13:11:47.992Z,32.60
2018-10-09T13:14:16.340Z,32.20
2018-10-09T13:16:44.678Z,31.90
2018-10-09T13:19:13.057Z,31.90
2018-10-09T13:21:42.230Z,32.40
2018-10-09T13:24:10.240Z,32.70
2018-10-09T13:26:38.711Z,32.10
2018-10-09T13:29:07.080Z,32.20
2018-10-09T13:31:35.369Z,32.00
2018-10-09T13:34:03.778Z,31.10
2018-10-09T13:36:32.222Z,31.10
2018-10-09T13:39:00.593Z,31.30
2018-10-09T13:41:28.957Z,31.90
2018-10-09T13:43:57.277Z,32.20
2018-10-09T13:46:25.697Z,32.50
2018-10-09T13:48:54.217Z,33.50
2018-10-09T13:51:22.537Z,34.10
2018-10-09T13:53:50.976Z,34.90
2018-10-09T13:56:19.362Z,35.30
2018-10-09T13:58:47.742Z,34.90
2018-10-09T14:01:16.047Z,35.30
2018-10-09T14:03:44.484Z,36.20
2018-10-09T14:06:12.922Z,36.90
2018-10-09T14:08:41.148Z,37.70
2018-10-09T14:11:09.795Z,38.60
2018-10-09T14:13:38.318Z,38.30
2018-10-09T14:16:06.793Z,38.60
2018-10-09T14:18:35.093Z,38.80
2018-10-09T14:21:03.465Z,39.60
2018-10-09T14:23:31.836Z,38.80
2018-10-09T14:26:00.176Z,38.80
2018-10-09T14:28:28.598Z,40.10
2018-10-09T14:30:57.057Z,40.10
2018-10-09T14:33:25.661Z,40.60
2018-10-09T14:35:54.017Z,41.60
2018-10-09T14:38:22.306Z,42.20
2018-10-09T14:40:50.677Z,42.30
2018-10-09T14:43:18.996Z,42.70
2018-10-09T14:45:47.378Z,43.00
2018-10-09T14:48:15.793Z,43.00
2018-10-09T14:50:44.177Z,44.00
2018-10-09T14:53:12.516Z,43.60
2018-10-09T14:55:40.906Z,43.60
2018-10-09T14:58:09.257Z,44.70
2018-10-09T15:00:37.605Z,44.70
2018-10-09T15:03:05.961Z,44.10
2018-10-09T15:05:34.333Z,44.50
2018-10-09T15:08:02.698Z,43.80
2018-10-09T15:10:31.106Z,44.30
2018-10-09T15:12:59.523Z,44.90
2018-10-09T15:15:27.914Z,45.80
2018-10-09T15:17:56.385Z,46.20
2018-10-09T15:20:24.809Z,46.10
2018-10-09T15:22:53.207Z,46.60
2018-10-09T15:25:21.601Z,47.40
2018-10-09T15:27:50.145Z,47.60
2018-10-09T15:30:18.521Z,48.00
2018-10-09T15:32:46.853Z,49.30
2018-10-09T15:35:15.231Z,50.30
2018-10-09T15:37:43.812Z,51.10
2018-10-09T15:40:12.404Z,51.40
2018-10-09T15:42:40.782Z,50.90
2018-10-09T15:45:09.176Z,51.10
2018-10-09T15:47:37.629Z,52.40
2018-10-09T15:50:06.096Z,53.00
2018-10-09T15:52:34.509Z,53.30
2018-10-09T15:55:02.812Z,54.00
2018-10-09T15:57:31.158Z,54.30
2018-10-09T15:59:59.577Z,54.90
2018-10-09T16:02:27.945Z,55.30
2018-10-09T16:04:56.272Z,55.70
2018-10-09T16:07:24.614Z,56.50
2018-10-09T16:09:52.989Z,57.00
2018-10-09T16:12:21.367Z,57.30
2018-10-09T16:14:49.747Z,57.90
2018-10-09T16:17:18.157Z,58.10
2018-10-09T16:19:46.512Z,58.30
2018-10-09T16:22:14.985Z,58.80
2018-10-09T16:24:43.330Z,59.20
2018-10-09T16:27:11.773Z,59.40
2018-10-09T16:29:40.081Z,59.80
2018-10-09T16:32:08.486Z,60.20
2018-10-09T16:34:36.853Z,60.50
2018-10-09T16:37:05.309Z,60.80
2018-10-09T16:39:33.672Z,61.10
2018-10-09T16:42:02.065Z,61.50
2018-10-09T16:44:30.406Z,62.00
2018-10-09T16:47:00.716Z,62.60
2018-10-09T16:49:29.078Z,63.00
2018-10-09T16:51:57.430Z,63.10
2018-10-09T16:54:25.726Z,63.20
2018-10-09T16:56:54.081Z,63.30
2018-10-09T16:59:22.413Z,63.50
2018-10-09T17:01:50.743Z,63.60
2018-10-09T17:04:19.113Z,63.90
2018-10-09T17:06:47.504Z,64.40
2018-10-09T17:09:15.840Z,64.70
2018-10-09T17:11:44.361Z,65.00
2018-10-09T17:14:12.836Z,65.10
2018-10-09T17:16:41.265Z,65.40
2018-10-09T17:19:09.877Z,65.60
2018-10-09T17:21:38.382Z,65.90
2018-10-09T17:24:06.893Z,66.30
2018-10-09T17:26:35.252Z,66.70
2018-10-09T17:29:03.657Z,67.10
2018-10-09T17:31:32.069Z,67.60
2018-10-09T17:34:00.436Z,68.10
2018-10-09T17:36:28.757Z,68.40
2018-10-09T17:38:57.165Z,68.60
2018-10-09T17:41:25.689Z,69.00
2018-10-09T17:43:54.038Z,69.20
2018-10-09T17:46:22.513Z,69.60
2018-10-09T17:48:50.810Z,70.10
2018-10-09T17:51:19.170Z,70.50
2018-10-09T17:53:47.542Z,70.60
2018-10-09T17:56:15.809Z,71.10
2018-10-09T17:58:44.174Z,71.50
2018-10-09T18:01:12.532Z,72.00
2018-10-09T18:03:41.025Z,72.20
2018-10-09T18:06:09.376Z,72.50
2018-10-09T18:08:37.881Z,72.40
2018-10-09T18:11:06.628Z,73.00
2018-10-09T18:13:34.991Z,72.90
2018-10-09T18:16:03.502Z,73.40
2018-10-09T18:18:31.990Z,73.40
2018-10-09T18:21:00.428Z,73.60
2018-10-09T18:23:28.790Z,73.80
2018-10-09T18:25:57.175Z,73.90
2018-10-09T18:28:25.633Z,74.40
2018-10-09T18:30:54.193Z,74.70
2018-10-09T18:33:22.833Z,75.20
2018-10-09T18:35:51.119Z,75.40
2018-10-09T18:38:19.542Z,75.80
2018-10-09T18:40:48.051Z,76.20
2018-10-09T18:43:16.333Z,76.60
2018-10-09T18:45:44.711Z,76.80
2018-10-09T18:48:13.077Z,77.30
2018-10-09T18:50:41.423Z,77.60
2018-10-09T18:53:09.845Z,77.80
2018-10-09T18:55:38.309Z,78.20
2018-10-09T18:58:06.725Z,78.50
2018-10-09T19:00:35.189Z,78.70
2018-10-09T19:03:03.661Z,79.00
2018-10-09T19:05:32.022Z,79.10
2018-10-09T19:08:00.536Z,79.30
2018-10-09T19:10:28.987Z,79.50
2018-10-09T19:12:57.378Z,79.60
2018-10-09T19:15:25.838Z,79.80
2018-10-09T19:17:54.323Z,80.20
2018-10-09T19:20:22.921Z,80.30
2018-10-09T19:22:51.274Z,80.60
2018-10-09T19:25:19.857Z,80.60
2018-10-09T19:27:48.231Z,80.80
2018-10-09T19:30:16.673Z,81.00
2018-10-09T19:32:45.101Z,81.30
2018-10-09T19:35:13.474Z,82.30
2018-10-09T19:37:48.005Z,82.00
2018-10-09T19:40:16.629Z,82.10
2018-10-09T19:42:45.034Z,82.10
2018-10-09T19:45:13.405Z,82.50
2018-10-09T19:47:41.867Z,82.60
2018-10-09T19:50:10.262Z,82.80
2018-10-09T19:52:38.616Z,82.90
2018-10-09T19:55:07.211Z,83.10
2018-10-09T19:57:35.673Z,83.40
2018-10-09T20:00:04.360Z,83.60
2018-10-09T20:02:32.704Z,83.80
2018-10-09T20:05:01.133Z,83.90
2018-10-09T20:07:29.604Z,84.10
2018-10-09T20:09:57.985Z,84.30
2018-10-09T20:12:26.493Z,84.30
2018-10-09T20:14:54.925Z,84.50
2018-10-09T20:17:23.342Z,84.60
2018-10-09T20:19:51.778Z,84.50
2018-10-09T20:22:20.190Z,84.80
2018-10-09T20:24:48.707Z,85.10
2018-10-09T20:27:17.154Z,85.30
2018-10-09T20:29:45.501Z,86.50
2018-10-09T20:32:13.887Z,86.80
2018-10-09T20:34:42.300Z,86.90
2018-10-09T20:37:10.624Z,87.00
2018-10-09T20:39:38.974Z,87.20
2018-10-09T20:42:07.438Z,87.30
2018-10-09T20:44:35.762Z,87.50
2018-10-09T20:47:04.085Z,87.80
2018-10-09T20:49:32.746Z,87.90
2018-10-09T20:52:01.116Z,88.00
2018-10-09T20:54:29.461Z,88.20
2018-10-09T20:56:57.917Z,88.30
2018-10-09T20:59:26.269Z,88.40
2018-10-09T21:01:54.676Z,88.60
2018-10-09T21:04:23.046Z,88.70
2018-10-09T21:06:51.426Z,88.80
2018-10-09T21:09:19.806Z,88.90
2018-10-09T21:11:48.185Z,89.00
2018-10-09T21:14:16.568Z,89.20
2018-10-09T21:16:44.933Z,88.70
2018-10-09T21:19:13.397Z,89.20
2018-10-09T21:21:41.785Z,89.30
2018-10-09T21:24:10.109Z,89.40
2018-10-09T21:26:38.521Z,89.40
2018-10-09T21:29:06.912Z,89.70
2018-10-09T21:31:35.241Z,89.80
2018-10-09T21:34:03.585Z,89.80
2018-10-09T21:36:32.049Z,90.00
2018-10-09T21:39:00.291Z,90.00
2018-10-09T21:41:28.658Z,90.00
2018-10-09T21:43:57.037Z,90.10
2018-10-09T21:46:25.361Z,90.10
2018-10-09T21:48:53.769Z,90.40
2018-10-09T21:51:22.237Z,90.20
2018-10-09T21:53:50.637Z,90.30
2018-10-09T21:56:19.069Z,90.60
2018-10-09T21:58:47.439Z,90.40
2018-10-09T22:01:15.849Z,90.40
2018-10-09T22:03:44.222Z,90.40
2018-10-09T22:06:12.589Z,90.40
2018-10-09T22:08:40.998Z,90.50
2018-10-09T22:11:09.368Z,90.50
2018-10-09T22:13:37.740Z,90.50
2018-10-09T22:16:06.161Z,90.60
2018-10-09T22:18:34.576Z,90.60
2018-10-09T22:21:02.997Z,90.70
2018-10-09T22:23:31.404Z,90.70
2018-10-09T22:25:59.766Z,90.80
2018-10-09T22:28:28.981Z,90.80
2018-10-09T22:30:57.319Z,90.80
2018-10-09T22:33:25.685Z,91.20
2018-10-09T22:35:54.063Z,90.80
2018-10-09T22:38:22.482Z,90.90
2018-10-09T22:40:50.777Z,91.00
2018-10-09T22:43:19.133Z,90.90
2018-10-09T22:45:47.508Z,90.90
2018-10-09T22:48:15.863Z,91.00
2018-10-09T22:50:44.236Z,91.00
2018-10-09T22:53:12.558Z,91.00
2018-10-09T22:55:40.893Z,91.00
2018-10-09T22:58:09.232Z,91.00
2018-10-09T23:00:37.621Z,91.10
2018-10-09T23:03:06.020Z,91.10
2018-10-09T23:05:34.413Z,91.20
2018-10-09T23:08:02.789Z,91.30
2018-10-09T23:10:31.197Z,91.30
2018-10-09T23:12:59.586Z,91.30
2018-10-09T23:15:27.970Z,91.30
2018-10-09T23:17:56.386Z,91.60
2018-10-09T23:20:24.698Z,91.30
2018-10-09T23:22:53.116Z,91.30
2018-10-09T23:25:21.472Z,91.40
2018-10-09T23:27:49.791Z,91.50
2018-10-09T23:30:18.142Z,91.40
2018-10-09T23:32:46.476Z,91.80
2018-10-09T23:35:14.797Z,91.60
2018-10-09T23:37:43.177Z,91.60
2018-10-09T23:40:11.542Z,91.60
2018-10-09T23:42:39.925Z,91.60
2018-10-09T23:45:08.309Z,91.70
2018-10-09T23:47:36.705Z,91.70
2018-10-09T23:50:05.371Z,91.70
2018-10-09T23:52:33.842Z,91.70
2018-10-09T23:55:02.221Z,91.80
2018-10-09T23:57:30.706Z,91.80
2018-10-09T23:59:59.085Z,91.90
